Time;durP1;ratioP1;P1;durP2;ratioP2;P2;SDS_P1;SDS_P2;PMS_P1;PMS_P2;Temp;Humidity;BMP_temperature;BMP_pressure;BME280_temperature;BME280_humidity;BME280_pressure;Samples;Min_cycle;Max_cycle;Signal;HPM_P1;HPM_P2
2023/08/29 00:00:58;;;;;;;1.42;0.98;;;15.20;99.90;;;;;;5044949;28;20152;-73
2023/08/29 00:03:28;;;;;;;1.95;1.08;;;15.20;99.90;;;;;;5066505;28;20048;-74
2023/08/29 00:06:02;;;;;;;1.83;1.20;;;15.20;99.90;;;;;;5065759;28;20060;-73
2023/08/29 00:08:29;;;;;;;1.42;1.02;;;15.20;99.90;;;;;;5066112;28;20048;-73
2023/08/29 00:10:59;;;;;;;1.63;1.10;;;15.20;99.90;;;;;;5063708;28;20049;-73
2023/08/29 00:13:26;;;;;;;1.20;0.90;;;15.20;99.90;;;;;;5063697;28;20098;-73
2023/08/29 00:15:52;;;;;;;1.63;1.10;;;15.20;99.90;;;;;;5064903;28;20464;-73
2023/08/29 00:18:19;;;;;;;1.08;0.80;;;15.20;99.90;;;;;;5066153;28;20076;-73
2023/08/29 00:20:46;;;;;;;2.03;0.93;;;15.20;99.90;;;;;;5064648;28;20060;-73
2023/08/29 00:23:13;;;;;;;1.77;0.98;;;15.20;99.90;;;;;;5064243;28;20118;-72
2023/08/29 00:25:40;;;;;;;1.70;1.00;;;15.20;99.90;;;;;;5061170;28;20385;-73
2023/08/29 00:28:07;;;;;;;1.30;0.98;;;15.20;99.90;;;;;;5059408;28;20197;-73
2023/08/29 00:30:37;;;;;;;1.63;1.02;;;15.20;99.90;;;;;;5046167;28;20049;-73
2023/08/29 00:33:05;;;;;;;1.38;1.05;;;15.30;99.90;;;;;;5065181;28;20044;-73
2023/08/29 00:35:32;;;;;;;2.15;0.93;;;15.20;99.90;;;;;;5065440;28;20053;-73
2023/08/29 00:37:59;;;;;;;1.67;1.35;;;15.20;99.90;;;;;;5064148;28;20353;-73
2023/08/29 00:40:30;;;;;;;1.65;1.13;;;15.20;99.90;;;;;;5047689;28;20045;-73
2023/08/29 00:43:00;;;;;;;1.33;0.90;;;15.20;99.90;;;;;;5063289;28;20055;-73
2023/08/29 00:45:32;;;;;;;1.08;0.82;;;15.20;99.90;;;;;;5068363;28;20055;-73
2023/08/29 00:48:00;;;;;;;1.13;0.77;;;15.20;99.90;;;;;;5052210;28;20049;-73
2023/08/29 00:50:27;;;;;;;1.83;0.90;;;15.20;99.90;;;;;;5051657;28;20040;-73
2023/08/29 00:52:58;;;;;;;1.88;0.90;;;15.20;99.90;;;;;;5051039;28;20094;-73
2023/08/29 00:55:25;;;;;;;2.40;1.00;;;15.30;99.90;;;;;;5068192;28;20135;-73
2023/08/29 00:57:56;;;;;;;1.27;0.90;;;15.20;99.90;;;;;;5066411;28;20047;-73
2023/08/29 01:00:29;;;;;;;1.60;0.98;;;15.20;1.00;;;;;;5068378;28;20052;-73
2023/08/29 01:02:57;;;;;;;1.23;1.00;;;15.20;1.00;;;;;;5065667;28;20098;-72
2023/08/29 01:05:24;;;;;;;1.23;1.05;;;15.20;1.00;;;;;;5063143;28;20508;-73
2023/08/29 01:07:52;;;;;;;0.98;0.68;;;15.20;1.00;;;;;;5049389;28;20044;-72
2023/08/29 01:10:21;;;;;;;1.58;1.00;;;15.20;1.00;;;;;;5067947;28;20052;-72
2023/08/29 01:12:55;;;;;;;1.50;0.70;;;15.20;1.00;;;;;;5050131;28;20055;-74
2023/08/29 01:15:23;;;;;;;1.65;1.15;;;15.20;1.00;;;;;;5052119;28;20139;-72
2023/08/29 01:17:53;;;;;;;1.48;1.05;;;15.20;1.00;;;;;;5067772;28;20044;-72
2023/08/29 01:20:21;;;;;;;1.13;0.80;;;15.20;1.00;;;;;;5051710;28;20146;-73
2023/08/29 01:23:07;;;;;;;0.98;0.80;;;15.20;1.00;;;;;;5069019;28;20424;-73
2023/08/29 01:26:03;;;;;;;1.05;0.77;;;15.20;1.00;;;;;;5068674;28;20048;-73
2023/08/29 01:28:30;;;;;;;1.30;0.90;;;15.30;29.90;;;;;;5067888;28;20048;-72
2023/08/29 01:30:56;;;;;;;1.30;0.80;;;15.30;55.40;;;;;;5064711;28;20481;-73
2023/08/29 01:33:24;;;;;;;1.23;0.90;;;15.30;99.90;;;;;;5051193;28;20059;-73
2023/08/29 01:35:50;;;;;;;1.30;0.82;;;15.20;99.90;;;;;;5066236;28;20055;-72
2023/08/29 01:38:17;;;;;;;1.40;1.00;;;15.20;99.90;;;;;;5066995;28;20080;-72
2023/08/29 01:40:44;;;;;;;1.65;1.15;;;15.20;1.00;;;;;;5032988;28;20053;-72
2023/08/29 01:43:11;;;;;;;1.80;0.85;;;15.20;99.90;;;;;;5062751;28;20450;-72
2023/08/29 01:45:38;;;;;;;1.50;1.00;;;15.20;99.90;;;;;;5069401;28;20044;-72
2023/08/29 01:48:05;;;;;;;1.23;0.88;;;15.20;72.60;;;;;;5068032;28;20053;-72
2023/08/29 01:50:33;;;;;;;1.85;1.17;;;15.10;99.90;;;;;;5069279;28;20127;-72
2023/08/29 01:53:00;;;;;;;1.58;0.80;;;15.10;99.90;;;;;;5050607;28;20051;-73
2023/08/29 01:55:27;;;;;;;1.92;0.88;;;15.10;99.90;;;;;;5067664;28;20079;-72
2023/08/29 01:57:54;;;;;;;1.35;0.75;;;15.10;99.90;;;;;;5048862;28;20040;-73
2023/08/29 02:00:22;;;;;;;0.90;0.70;;;15.20;99.90;;;;;;5050559;28;20415;-73
2023/08/29 02:02:49;;;;;;;1.67;0.95;;;15.20;99.90;;;;;;5067194;28;20131;-73
2023/08/29 02:05:16;;;;;;;1.25;0.70;;;15.20;99.90;;;;;;5067255;28;20446;-73
2023/08/29 02:07:42;;;;;;;1.67;1.00;;;15.20;99.90;;;;;;5068004;28;20115;-72
2023/08/29 02:10:10;;;;;;;1.48;0.93;;;15.20;99.90;;;;;;5066582;28;20485;-73
2023/08/29 02:12:37;;;;;;;1.63;0.77;;;15.20;99.90;;;;;;5048542;28;20051;-72
2023/08/29 02:15:06;;;;;;;0.88;0.70;;;15.20;99.90;;;;;;5050333;28;20409;-72
2023/08/29 02:17:33;;;;;;;1.38;1.05;;;15.20;99.90;;;;;;5067754;28;20044;-73
2023/08/29 02:20:00;;;;;;;1.55;1.10;;;15.20;99.90;;;;;;5067997;28;20083;-72
2023/08/29 02:22:27;;;;;;;0.98;0.68;;;15.20;1.00;;;;;;5049207;28;20048;-73
2023/08/29 02:24:53;;;;;;;0.98;0.68;;;15.20;1.00;;;;;;5066394;28;20087;-72
2023/08/29 02:27:20;;;;;;;1.77;0.95;;;15.20;99.90;;;;;;5065821;28;20054;-72
2023/08/29 02:29:47;;;;;;;1.05;0.65;;;15.20;99.90;;;;;;5068007;28;20044;-73
2023/08/29 02:32:14;;;;;;;0.77;0.70;;;15.20;99.90;;;;;;5067350;28;20123;-72
2023/08/29 02:34:41;;;;;;;1.35;0.63;;;15.20;99.90;;;;;;5065637;28;20700;-72
2023/08/29 02:37:08;;;;;;;0.95;0.57;;;15.20;1.00;;;;;;5060728;28;20068;-73
2023/08/29 02:39:35;;;;;;;0.68;0.50;;;15.20;37.00;;;;;;5057132;28;20110;-73
2023/08/29 02:42:01;;;;;;;1.58;0.82;;;15.20;99.90;;;;;;5065564;28;20110;-73
2023/08/29 02:44:28;;;;;;;0.73;0.50;;;15.10;99.90;;;;;;5067979;28;20067;-72
2023/08/29 02:46:55;;;;;;;1.33;0.90;;;15.10;99.90;;;;;;5067298;28;20448;-73
2023/08/29 02:49:22;;;;;;;1.02;0.60;;;15.10;99.90;;;;;;5067634;28;20048;-73
2023/08/29 02:51:49;;;;;;;1.25;0.90;;;15.00;1.00;;;;;;5082255;28;20048;-73
2023/08/29 02:54:15;;;;;;;1.25;0.80;;;15.00;1.00;;;;;;5066458;28;20052;-72
2023/08/29 02:56:42;;;;;;;1.17;0.80;;;15.00;99.90;;;;;;5065048;28;20083;-73
2023/08/29 02:59:09;;;;;;;1.65;0.82;;;15.00;99.90;;;;;;5067717;28;20048;-72
2023/08/29 03:01:36;;;;;;;0.90;0.63;;;15.00;99.90;;;;;;5065843;28;20086;-72
2023/08/29 03:04:03;;;;;;;1.30;0.80;;;14.90;99.90;;;;;;5067594;28;20094;-73
2023/08/29 03:06:30;;;;;;;0.80;0.70;;;14.90;1.00;;;;;;5066533;28;20055;-73
2023/08/29 03:08:57;;;;;;;1.48;0.70;;;14.90;1.00;;;;;;5065642;28;20045;-72
2023/08/29 03:11:24;;;;;;;1.23;0.75;;;14.80;1.00;;;;;;5081163;28;20803;-73
2023/08/29 03:13:50;;;;;;;1.67;0.90;;;14.80;55.40;;;;;;5065718;28;20135;-73
2023/08/29 03:16:17;;;;;;;1.23;0.93;;;14.80;91.70;;;;;;5049444;28;20053;-72
2023/08/29 03:18:46;;;;;;;1.67;0.80;;;14.80;99.90;;;;;;5048326;28;20048;-73
2023/08/29 03:21:13;;;;;;;1.67;0.75;;;14.80;99.90;;;;;;5048180;28;20882;-73
2023/08/29 03:23:39;;;;;;;1.88;0.75;;;14.80;99.90;;;;;;5065755;28;20079;-73
2023/08/29 03:26:08;;;;;;;1.23;0.80;;;14.80;99.90;;;;;;5064988;28;20056;-72
2023/08/29 03:28:37;;;;;;;0.85;0.60;;;14.90;99.90;;;;;;5065956;28;20049;-73
2023/08/29 03:31:16;;;;;;;1.08;0.70;;;14.90;99.90;;;;;;5065075;28;21764;-73
2023/08/29 03:33:43;;;;;;;2.63;0.98;;;14.90;99.90;;;;;;5049125;28;20231;-73
2023/08/29 03:36:10;;;;;;;1.13;0.77;;;15.00;99.90;;;;;;5064696;28;20044;-72
2023/08/29 03:38:38;;;;;;;1.33;0.80;;;15.00;99.90;;;;;;5049237;28;20040;-72
2023/08/29 03:41:05;;;;;;;1.40;0.98;;;15.00;99.90;;;;;;5063827;28;20752;-72
2023/08/29 03:43:33;;;;;;;2.20;1.00;;;15.00;99.90;;;;;;5065182;28;20048;-73
2023/08/29 03:46:02;;;;;;;0.75;0.65;;;15.10;99.90;;;;;;5066105;28;20121;-73
2023/08/29 03:48:30;;;;;;;0.98;0.60;;;15.10;99.90;;;;;;5066627;28;20124;-73
2023/08/29 03:51:06;;;;;;;1.00;0.70;;;15.10;99.90;;;;;;5064731;28;20098;-72
2023/08/29 03:53:34;;;;;;;1.10;0.90;;;15.10;99.90;;;;;;5049863;28;20205;-72
2023/08/29 03:56:02;;;;;;;1.00;0.70;;;15.20;99.90;;;;;;5064784;28;20103;-72
2023/08/29 03:58:30;;;;;;;1.30;0.85;;;15.20;99.90;;;;;;5031832;28;20484;-73
2023/08/29 04:00:57;;;;;;;1.23;0.82;;;15.20;99.90;;;;;;5065776;28;20052;-72
2023/08/29 04:03:24;;;;;;;1.38;0.90;;;15.20;99.90;;;;;;5066614;28;20147;-73
2023/08/29 04:05:51;;;;;;;0.57;0.50;;;15.20;99.90;;;;;;5047988;28;20053;-72
2023/08/29 04:08:18;;;;;;;1.00;0.75;;;15.20;99.90;;;;;;5081657;28;20052;-72
2023/08/29 04:10:45;;;;;;;1.60;0.98;;;15.20;99.90;;;;;;5065811;28;20472;-72
2023/08/29 04:13:12;;;;;;;1.83;0.88;;;15.20;99.90;;;;;;5064167;28;20514;-73
2023/08/29 04:15:38;;;;;;;1.02;0.60;;;15.20;99.90;;;;;;5031699;28;20056;-73
2023/08/29 04:18:06;;;;;;;1.05;0.68;;;15.20;99.90;;;;;;5064119;28;20045;-72
2023/08/29 04:20:33;;;;;;;1.27;0.60;;;15.20;99.90;;;;;;5081654;28;20052;-73
2023/08/29 04:23:03;;;;;;;1.73;1.02;;;15.20;99.90;;;;;;5064985;28;20089;-72
2023/08/29 04:25:30;;;;;;;0.43;0.43;;;15.20;99.90;;;;;;5063530;28;20183;-71
2023/08/29 04:27:57;;;;;;;0.90;0.60;;;15.20;99.90;;;;;;5058789;28;20045;-72
2023/08/29 04:30:24;;;;;;;0.73;0.60;;;15.20;99.90;;;;;;5064484;28;20461;-73
2023/08/29 04:32:51;;;;;;;0.82;0.63;;;15.20;99.90;;;;;;5046166;28;20045;-74
2023/08/29 04:35:18;;;;;;;0.40;0.30;;;15.20;99.90;;;;;;5049217;28;20585;-73
2023/08/29 04:37:48;;;;;;;1.00;0.80;;;15.10;99.90;;;;;;5059458;28;20056;-74
2023/08/29 04:40:16;;;;;;;0.70;0.40;;;15.10;99.90;;;;;;5061992;28;20114;-73
2023/08/29 04:42:47;;;;;;;0.75;0.50;;;15.10;99.90;;;;;;5032832;28;20080;-74
2023/08/29 04:45:14;;;;;;;0.60;0.40;;;15.10;99.90;;;;;;5047345;28;20102;-73
2023/08/29 04:47:41;;;;;;;0.95;0.50;;;15.10;99.90;;;;;;5060349;28;20045;-74
2023/08/29 04:50:08;;;;;;;0.47;0.40;;;15.10;99.90;;;;;;5046531;28;20036;-73
2023/08/29 04:52:34;;;;;;;0.88;0.50;;;15.10;99.90;;;;;;5027672;28;20045;-74
2023/08/29 04:55:01;;;;;;;0.80;0.60;;;15.10;99.90;;;;;;5067113;28;20044;-73
2023/08/29 04:57:28;;;;;;;0.80;0.70;;;15.10;1.00;;;;;;5079579;28;20048;-73
2023/08/29 04:59:55;;;;;;;1.08;0.60;;;15.10;1.00;;;;;;5064194;28;20048;-73
2023/08/29 05:02:22;;;;;;;1.42;0.60;;;15.10;1.00;;;;;;5054422;28;20092;-73
2023/08/29 05:04:49;;;;;;;0.82;0.57;;;15.10;99.90;;;;;;5056494;28;20071;-73
2023/08/29 05:07:15;;;;;;;0.90;0.47;;;15.00;99.90;;;;;;5032250;28;20059;-73
2023/08/29 05:09:42;;;;;;;0.95;0.70;;;15.10;99.90;;;;;;5062342;28;20262;-74
2023/08/29 05:12:10;;;;;;;0.57;0.50;;;15.00;99.90;;;;;;5070869;28;20049;-73
2023/08/29 05:14:38;;;;;;;0.90;0.60;;;15.00;99.90;;;;;;5040064;28;20548;-73
2023/08/29 05:17:05;;;;;;;0.45;0.38;;;15.10;99.90;;;;;;5082273;28;20052;-74
2023/08/29 05:19:32;;;;;;;0.90;0.60;;;15.10;99.90;;;;;;5053436;28;20045;-73
2023/08/29 05:21:59;;;;;;;0.80;0.50;;;15.10;99.90;;;;;;5057339;28;20098;-73
2023/08/29 05:24:26;;;;;;;1.77;0.70;;;15.10;99.90;;;;;;5056328;28;20045;-73
2023/08/29 05:26:53;;;;;;;0.82;0.60;;;15.10;99.90;;;;;;5066286;28;20053;-73
2023/08/29 05:29:21;;;;;;;1.08;0.75;;;15.10;99.90;;;;;;5061637;28;20139;-73
2023/08/29 05:31:47;;;;;;;0.70;0.40;;;15.20;99.90;;;;;;5059499;28;20052;-73
2023/08/29 05:34:14;;;;;;;0.70;0.43;;;15.20;99.90;;;;;;5064001;28;20089;-73
2023/08/29 05:36:41;;;;;;;0.77;0.40;;;15.20;99.90;;;;;;5059978;28;20048;-73
2023/08/29 05:39:08;;;;;;;1.00;0.63;;;15.20;99.90;;;;;;5064357;28;20041;-73
2023/08/29 05:41:34;;;;;;;0.88;0.70;;;15.30;99.90;;;;;;5064077;28;20068;-73
2023/08/29 05:44:01;;;;;;;1.13;0.60;;;15.30;99.90;;;;;;5065263;28;20053;-74
2023/08/29 05:46:28;;;;;;;0.50;0.50;;;15.30;99.90;;;;;;5062359;28;20074;-74
2023/08/29 05:48:55;;;;;;;0.95;0.57;;;15.40;99.90;;;;;;5079330;28;20080;-74
2023/08/29 05:51:21;;;;;;;0.77;0.47;;;15.40;99.90;;;;;;5025062;28;20152;-73
2023/08/29 05:53:48;;;;;;;0.77;0.57;;;15.40;99.90;;;;;;5065089;28;20119;-72
2023/08/29 05:56:15;;;;;;;0.90;0.50;;;15.50;99.90;;;;;;5064747;28;20317;-72
2023/08/29 05:58:42;;;;;;;0.73;0.60;;;15.50;99.90;;;;;;5062923;28;20672;-72
2023/08/29 06:01:09;;;;;;;0.50;0.50;;;15.50;99.90;;;;;;5088185;28;20044;-73
2023/08/29 06:03:36;;;;;;;0.40;0.40;;;15.60;68.40;;;;;;5038880;28;20453;-73
2023/08/29 06:06:03;;;;;;;1.23;0.63;;;15.60;1.00;;;;;;5063559;28;20071;-73
2023/08/29 06:08:33;;;;;;;0.85;0.43;;;15.70;1.00;;;;;;5046919;28;20173;-74
2023/08/29 06:11:00;;;;;;;1.00;0.50;;;15.70;1.00;;;;;;5061386;28;20041;-73
2023/08/29 06:13:27;;;;;;;0.43;0.40;;;15.80;1.00;;;;;;5080047;28;20110;-73
2023/08/29 06:15:54;;;;;;;0.60;0.50;;;15.90;1.00;;;;;;5027706;28;20052;-73
2023/08/29 06:18:21;;;;;;;0.35;0.30;;;15.90;99.90;;;;;;5070978;28;20131;-73
2023/08/29 06:20:48;;;;;;;0.52;0.35;;;15.90;99.90;;;;;;5064021;28;20060;-73
2023/08/29 06:23:14;;;;;;;0.55;0.45;;;15.90;99.90;;;;;;5053749;28;20045;-73
2023/08/29 06:25:41;;;;;;;0.50;0.40;;;16.00;99.90;;;;;;5061591;28;20578;-73
2023/08/29 06:28:08;;;;;;;0.60;0.52;;;16.00;99.90;;;;;;5061334;28;20116;-73
2023/08/29 06:30:35;;;;;;;0.40;0.40;;;16.10;99.90;;;;;;5043656;28;20044;-73
2023/08/29 06:33:06;;;;;;;1.00;0.50;;;16.10;99.90;;;;;;5055632;28;20501;-73
2023/08/29 06:35:39;;;;;;;0.70;0.50;;;16.10;99.90;;;;;;5061233;28;20118;-73
2023/08/29 06:38:06;;;;;;;;;;;16.20;99.90;;;;;;5062408;28;20051;-74
2023/08/29 06:40:34;;;;;;;0.30;0.30;;;16.20;99.90;;;;;;5061138;28;19920;-73
2023/08/29 06:43:01;;;;;;;0.40;0.40;;;16.30;99.90;;;;;;5061692;28;20045;-74
2023/08/29 06:45:28;;;;;;;0.55;0.30;;;16.30;99.90;;;;;;5062840;28;20069;-73
2023/08/29 06:47:55;;;;;;;0.85;0.55;;;16.30;98.50;;;;;;5073528;28;20051;-73
2023/08/29 06:50:22;;;;;;;0.40;0.38;;;16.30;9.80;;;;;;5062887;28;20048;-76
2023/08/29 06:52:49;;;;;;;0.43;0.40;;;16.40;1.00;;;;;;5060421;28;20064;-74
2023/08/29 06:55:16;;;;;;;0.25;0.20;;;16.40;1.00;;;;;;5063086;28;20450;-74
2023/08/29 06:57:43;;;;;;;0.77;0.60;;;16.40;1.00;;;;;;5063352;28;20064;-74
2023/08/29 07:00:11;;;;;;;0.43;0.43;;;16.40;1.00;;;;;;5065350;28;20052;-74
2023/08/29 07:02:38;;;;;;;0.55;0.35;;;16.50;1.00;;;;;;5045624;28;20077;-74
2023/08/29 07:05:05;;;;;;;0.73;0.50;;;16.50;1.00;;;;;;5062228;28;20909;-74
2023/08/29 07:07:32;;;;;;;0.70;0.50;;;16.50;99.90;;;;;;5063038;28;20044;-74
2023/08/29 07:09:59;;;;;;;0.55;0.35;;;16.60;99.90;;;;;;5049267;28;20071;-74
2023/08/29 07:12:26;;;;;;;0.63;0.50;;;16.60;99.90;;;;;;5063730;28;20087;-74
2023/08/29 07:14:53;;;;;;;0.80;0.60;;;16.70;99.90;;;;;;5065456;28;20398;-74
2023/08/29 07:17:19;;;;;;;1.23;0.50;;;16.70;99.90;;;;;;5048809;28;20101;-73
2023/08/29 07:19:46;;;;;;;0.35;0.28;;;16.80;1.00;;;;;;5066849;28;20045;-73
2023/08/29 07:22:13;;;;;;;0.30;0.30;;;16.80;11.00;;;;;;5065330;28;20132;-73
2023/08/29 07:24:50;;;;;;;0.80;0.50;;;16.90;1.00;;;;;;5065408;28;20048;-73
2023/08/29 07:27:17;;;;;;;0.73;0.40;;;16.90;99.90;;;;;;5064740;28;20102;-73
2023/08/29 07:29:43;;;;;;;0.75;0.40;;;17.00;99.90;;;;;;5065760;28;20056;-74
2023/08/29 07:32:10;;;;;;;0.75;0.50;;;17.00;1.00;;;;;;5063400;28;20044;-74
2023/08/29 07:34:39;;;;;;;0.30;0.30;;;17.10;99.90;;;;;;5063327;28;20136;-74
2023/08/29 07:37:07;;;;;;;0.73;0.57;;;17.10;99.90;;;;;;5061525;28;20071;-73
2023/08/29 07:39:34;;;;;;;0.63;0.50;;;17.10;99.90;;;;;;5062606;28;20052;-74
2023/08/29 07:42:01;;;;;;;0.40;0.40;;;17.10;99.90;;;;;;5059317;28;20053;-74
2023/08/29 07:44:29;;;;;;;1.40;0.65;;;17.20;99.90;;;;;;5060593;28;20058;-74
2023/08/29 07:46:56;;;;;;;0.73;0.50;;;17.20;1.00;;;;;;5066362;28;20056;-73
2023/08/29 07:49:40;;;;;;;0.75;0.50;;;17.20;1.00;;;;;;5065506;28;20131;-74
2023/08/29 07:52:07;;;;;;;0.57;0.57;;;17.30;99.90;;;;;;5057729;28;20110;-73
2023/08/29 07:54:33;;;;;;;0.93;0.60;;;17.30;1.00;;;;;;5054004;28;20083;-74
2023/08/29 07:57:00;;;;;;;0.85;0.50;;;17.40;99.90;;;;;;5068104;28;20045;-74
2023/08/29 07:59:27;;;;;;;0.88;0.47;;;17.50;99.90;;;;;;5056269;28;20080;-73
2023/08/29 08:01:54;;;;;;;0.93;0.50;;;17.60;99.90;;;;;;5049585;28;20053;-74
2023/08/29 08:04:21;;;;;;;0.95;0.60;;;17.60;1.00;;;;;;5050973;28;20055;-74
2023/08/29 08:06:48;;;;;;;1.08;0.57;;;17.70;8.50;;;;;;5071022;28;20049;-74
2023/08/29 08:09:16;;;;;;;0.80;0.40;;;17.70;1.00;;;;;;5059717;28;20346;-73
2023/08/29 08:11:42;;;;;;;0.98;0.60;;;17.80;1.00;;;;;;5057584;28;20170;-74
2023/08/29 08:14:09;;;;;;;0.75;0.60;;;17.90;99.90;;;;;;5058473;28;20202;-74
2023/08/29 08:16:36;;;;;;;0.47;0.40;;;18.00;99.90;;;;;;5057921;28;20408;-74
2023/08/29 08:19:04;;;;;;;0.50;0.40;;;18.00;99.90;;;;;;5051569;28;20044;-74
2023/08/29 08:21:30;;;;;;;0.70;0.45;;;18.10;1.00;;;;;;5055574;28;20458;-74
2023/08/29 08:23:57;;;;;;;0.90;0.60;;;18.20;99.90;;;;;;5039987;28;20137;-74
2023/08/29 08:26:24;;;;;;;0.82;0.60;;;18.20;99.90;;;;;;5039046;28;20511;-74
2023/08/29 08:28:53;;;;;;;0.77;0.60;;;18.30;91.20;;;;;;5052883;28;20456;-74
2023/08/29 08:31:20;;;;;;;0.57;0.40;;;18.30;99.90;;;;;;5057909;28;20078;-74
2023/08/29 08:33:47;;;;;;;0.88;0.68;;;18.40;99.90;;;;;;5055303;28;20431;-74
2023/08/29 08:36:14;;;;;;;0.52;0.40;;;18.50;99.90;;;;;;5057523;28;20602;-73
2023/08/29 08:38:41;;;;;;;0.95;0.50;;;18.60;99.90;;;;;;5055940;28;20045;-74
2023/08/29 08:41:09;;;;;;;1.20;0.32;;;18.60;27.60;;;;;;5056707;28;20056;-73
2023/08/29 08:43:37;;;;;;;0.50;0.40;;;18.70;22.40;;;;;;5039567;28;20070;-73
2023/08/29 08:46:04;;;;;;;0.60;0.40;;;18.80;1.00;;;;;;5043967;28;20048;-73
2023/08/29 08:48:31;;;;;;;0.75;0.50;;;18.90;1.00;;;;;;5058917;28;20544;-74
2023/08/29 08:50:57;;;;;;;0.30;0.30;;;19.00;1.00;;;;;;5040892;28;20052;-73
2023/08/29 08:53:24;;;;;;;1.13;0.40;;;19.10;1.00;;;;;;5059752;28;20142;-74
2023/08/29 08:55:51;;;;;;;0.75;0.50;;;19.30;1.00;;;;;;5057520;28;20568;-73
2023/08/29 08:58:18;;;;;;;0.30;0.20;;;19.40;1.00;;;;;;5056477;28;20056;-73
2023/08/29 09:00:45;;;;;;;0.60;0.30;;;19.50;1.00;;;;;;5040921;28;20148;-74
2023/08/29 09:03:12;;;;;;;0.70;0.52;;;19.60;1.00;;;;;;5055557;28;20572;-73
2023/08/29 09:05:41;;;;;;;0.20;0.20;;;19.60;1.00;;;;;;5053286;28;20557;-73
2023/08/29 09:08:08;;;;;;;0.73;0.50;;;19.50;1.00;;;;;;5058044;28;20045;-73
2023/08/29 09:10:38;;;;;;;0.50;0.50;;;19.50;1.00;;;;;;5078494;28;20055;-73
2023/08/29 09:13:04;;;;;;;0.70;0.50;;;19.50;1.00;;;;;;5061741;28;20048;-73
2023/08/29 09:15:32;;;;;;;0.75;0.40;;;19.70;1.00;;;;;;5064539;28;20625;-73
2023/08/29 09:17:58;;;;;;;1.10;0.55;;;19.70;1.00;;;;;;5046905;28;20048;-73
2023/08/29 09:20:29;;;;;;;0.52;0.38;;;19.70;1.00;;;;;;5047637;28;20072;-73
2023/08/29 09:22:56;;;;;;;0.50;0.40;;;19.90;1.00;;;;;;5030184;28;20060;-73
2023/08/29 09:25:26;;;;;;;1.20;0.57;;;19.90;1.00;;;;;;5063381;28;20044;-73
2023/08/29 09:27:53;;;;;;;0.88;0.45;;;20.00;1.00;;;;;;5063679;28;20143;-73
2023/08/29 09:30:20;;;;;;;0.80;0.32;;;20.20;1.00;;;;;;5047235;28;20060;-73
2023/08/29 09:32:51;;;;;;;0.90;0.50;;;20.20;1.00;;;;;;5063297;28;20044;-73
2023/08/29 09:35:22;;;;;;;0.70;0.50;;;20.20;1.00;;;;;;5059395;28;20040;-73
2023/08/29 09:37:59;;;;;;;0.85;0.43;;;20.10;1.00;;;;;;5055016;28;20083;-73
2023/08/29 09:40:26;;;;;;;0.55;0.30;;;19.90;1.00;;;;;;5080269;28;20044;-73
2023/08/29 09:43:06;;;;;;;0.88;0.40;;;19.90;1.00;;;;;;5091410;28;20048;-73
2023/08/29 09:45:33;;;;;;;0.63;0.57;;;20.00;1.00;;;;;;5046722;28;20052;-73
2023/08/29 09:48:06;;;;;;;0.63;0.40;;;20.00;1.00;;;;;;5064624;28;20060;-72
2023/08/29 09:50:34;;;;;;;0.50;0.40;;;20.20;1.00;;;;;;5064564;28;20048;-73
2023/08/29 09:53:02;;;;;;;0.60;0.50;;;20.40;1.00;;;;;;5046721;28;20111;-73
2023/08/29 09:55:35;;;;;;;0.50;0.50;;;20.60;1.00;;;;;;5063173;28;20064;-73
2023/08/29 09:58:04;;;;;;;1.35;0.30;;;20.80;1.00;;;;;;5045006;28;20063;-73
2023/08/29 10:00:32;;;;;;;0.52;0.30;;;21.00;1.00;;;;;;5031105;28;20144;-72
2023/08/29 10:02:59;;;;;;;0.30;0.30;;;21.20;1.00;;;;;;5046474;28;20590;-73
2023/08/29 10:05:27;;;;;;;0.50;0.50;;;21.20;1.00;;;;;;5064286;28;20053;-74
2023/08/29 10:07:57;;;;;;;1.42;0.60;;;21.30;1.00;;;;;;5046138;28;20512;-73
2023/08/29 10:10:24;;;;;;;1.00;0.60;;;21.50;1.00;;;;;;5063046;28;20109;-73
2023/08/29 10:12:51;;;;;;;1.00;0.52;;;21.50;1.00;;;;;;5044989;28;20156;-73
2023/08/29 10:15:18;;;;;;;0.70;0.50;;;21.50;1.00;;;;;;5045835;28;20059;-72
2023/08/29 10:17:44;;;;;;;0.28;0.28;;;21.50;1.00;;;;;;5062233;28;20702;-72
2023/08/29 10:20:12;;;;;;;0.57;0.50;;;21.70;1.00;;;;;;5046742;28;20440;-72
2023/08/29 10:22:41;;;;;;;0.75;0.50;;;21.60;1.00;;;;;;5045894;28;20048;-72
2023/08/29 10:25:08;;;;;;;0.63;0.47;;;21.70;1.00;;;;;;5062709;28;20346;-72
2023/08/29 10:27:35;;;;;;;0.35;0.35;;;21.60;1.00;;;;;;5058955;28;20404;-77
2023/08/29 10:30:02;;;;;;;0.57;0.50;;;21.70;1.00;;;;;;5043058;28;20613;-77
2023/08/29 10:32:29;;;;;;;0.95;0.50;;;21.50;1.00;;;;;;5043040;28;20052;-76
2023/08/29 10:34:57;;;;;;;1.08;0.65;;;21.30;1.00;;;;;;5077297;28;20056;-76
2023/08/29 10:37:25;;;;;;;0.50;0.50;;;21.40;1.00;;;;;;5058674;28;20052;-76
2023/08/29 10:39:52;;;;;;;0.80;0.55;;;21.50;1.00;;;;;;5024269;28;20056;-79
2023/08/29 10:42:19;;;;;;;1.40;0.73;;;21.50;1.00;;;;;;5058502;28;20052;-76
2023/08/29 10:44:46;;;;;;;0.98;0.70;;;21.40;1.00;;;;;;5058542;28;20462;-77
2023/08/29 10:47:21;;;;;;;0.40;0.40;;;21.40;1.00;;;;;;5040561;28;20137;-77
2023/08/29 10:49:48;;;;;;;0.90;0.60;;;21.40;1.00;;;;;;5072300;28;20508;-76
2023/08/29 10:52:18;;;;;;;0.40;0.40;;;21.50;1.00;;;;;;5054805;28;20143;-76
2023/08/29 10:54:45;;;;;;;0.70;0.55;;;21.60;1.00;;;;;;5057805;28;20045;-77
2023/08/29 10:57:28;;;;;;;0.70;0.50;;;21.70;1.00;;;;;;5034207;28;20136;-76
2023/08/29 10:59:56;;;;;;;0.88;0.65;;;21.80;1.00;;;;;;5057300;28;20720;-76
2023/08/29 11:02:23;;;;;;;0.90;0.45;;;21.90;1.00;;;;;;5055281;28;20518;-76
2023/08/29 11:05:03;;;;;;;1.75;0.75;;;22.20;1.00;;;;;;5056162;28;20063;-76
2023/08/29 11:07:31;;;;;;;0.77;0.50;;;22.30;1.00;;;;;;5055748;28;20107;-77
2023/08/29 11:10:16;;;;;;;0.95;0.60;;;22.50;1.00;;;;;;5057020;28;20049;-76
2023/08/29 11:13:09;;;;;;;0.98;0.50;;;22.50;1.00;;;;;;5056034;28;20056;-77
2023/08/29 11:15:50;;;;;;;0.70;0.65;;;22.50;1.00;;;;;;5040981;28;20055;-77
2023/08/29 11:18:26;;;;;;;0.75;0.60;;;22.40;1.00;;;;;;5056125;28;20698;-77
2023/08/29 11:20:56;;;;;;;0.85;0.50;;;22.50;1.00;;;;;;5055146;28;20053;-76
2023/08/29 11:23:23;;;;;;;0.40;0.40;;;22.60;1.00;;;;;;5053431;28;20140;-77
2023/08/29 11:25:50;;;;;;;0.90;0.50;;;22.60;1.00;;;;;;5066927;28;20044;-76
2023/08/29 11:28:20;;;;;;;1.08;0.77;;;22.50;1.00;;;;;;5037418;28;20237;-77
2023/08/29 11:30:47;;;;;;;1.00;0.77;;;22.30;1.00;;;;;;5056263;28;20069;-77
2023/08/29 11:33:14;;;;;;;1.00;0.80;;;22.30;1.00;;;;;;5054973;28;20114;-77
2023/08/29 11:35:42;;;;;;;1.10;0.80;;;22.20;1.00;;;;;;5037178;28;20052;-77
2023/08/29 11:38:09;;;;;;;0.85;0.70;;;22.00;1.00;;;;;;5039621;28;20326;-77
2023/08/29 11:40:36;;;;;;;1.17;0.70;;;22.00;1.00;;;;;;5042461;28;20072;-73
2023/08/29 11:43:10;;;;;;;2.15;0.80;;;22.20;1.00;;;;;;5050932;28;20056;-76
2023/08/29 11:45:57;;;;;;;1.00;0.60;;;22.20;1.00;;;;;;5027189;28;20052;-76
2023/08/29 11:48:26;;;;;;;1.00;0.85;;;22.30;1.00;;;;;;5025305;28;20432;-76
2023/08/29 11:50:59;;;;;;;2.25;0.70;;;22.50;1.00;;;;;;5053284;28;20130;-72
2023/08/29 11:53:27;;;;;;;;;;;22.60;1.00;;;;;;5057428;28;20459;-73
2023/08/29 11:55:54;;;;;;;0.90;0.70;;;22.70;1.00;;;;;;5055381;28;19928;-72
2023/08/29 11:58:24;;;;;;;0.82;0.40;;;22.80;1.00;;;;;;5058445;28;20234;-73
2023/08/29 12:00:52;;;;;;;0.70;0.70;;;23.00;1.00;;;;;;5055088;28;20455;-73
2023/08/29 12:03:20;;;;;;;1.00;0.80;;;23.60;1.00;;;;;;5051359;28;20075;-73
2023/08/29 12:05:48;;;;;;;0.95;0.73;;;23.60;1.00;;;;;;5054390;28;20114;-73
2023/08/29 12:08:15;;;;;;;0.88;0.77;;;23.70;1.00;;;;;;5054891;28;20060;-73
2023/08/29 12:10:52;;;;;;;1.02;0.93;;;24.00;1.00;;;;;;5057966;28;20048;-73
2023/08/29 12:13:21;;;;;;;1.30;0.73;;;24.00;1.00;;;;;;5089609;28;20052;-73
2023/08/29 12:15:48;;;;;;;1.00;0.75;;;24.00;1.00;;;;;;5056484;28;20109;-72
2023/08/29 12:18:24;;;;;;;0.93;0.73;;;24.10;1.00;;;;;;5058056;28;20076;-72
2023/08/29 12:20:52;;;;;;;1.00;0.88;;;24.40;1.00;;;;;;5055747;28;20057;-73
2023/08/29 12:23:28;;;;;;;1.00;0.80;;;24.60;1.00;;;;;;5057011;28;20069;-73
2023/08/29 12:25:59;;;;;;;1.08;0.80;;;24.70;1.00;;;;;;5036414;28;20380;-72
2023/08/29 12:28:27;;;;;;;0.60;0.60;;;25.00;1.00;;;;;;5054493;28;20044;-73
2023/08/29 12:30:54;;;;;;;1.10;0.77;;;25.40;1.00;;;;;;5053687;28;20056;-73
2023/08/29 12:33:21;;;;;;;0.85;0.80;;;25.30;1.00;;;;;;5038891;28;20106;-73
2023/08/29 12:35:48;;;;;;;1.35;0.70;;;25.20;1.00;;;;;;5056585;28;20060;-73
2023/08/29 12:38:15;;;;;;;1.05;0.90;;;25.30;1.00;;;;;;5056356;28;20495;-73
2023/08/29 12:40:42;;;;;;;0.70;0.60;;;25.20;1.00;;;;;;5061818;28;20125;-73
2023/08/29 12:43:09;;;;;;;1.38;1.10;;;25.20;1.00;;;;;;5059228;28;20048;-73
2023/08/29 12:45:36;;;;;;;1.52;1.17;;;25.20;1.00;;;;;;5063243;28;20416;-73
2023/08/29 12:48:23;;;;;;;1.17;0.93;;;24.60;1.00;;;;;;5058570;28;20040;-73
2023/08/29 12:50:50;;;;;;;1.50;1.00;;;24.70;1.00;;;;;;5053690;28;20058;-73
2023/08/29 12:53:17;;;;;;;0.75;0.70;;;24.90;1.00;;;;;;5047604;28;20048;-73
2023/08/29 12:55:43;;;;;;;0.85;0.63;;;25.20;1.00;;;;;;5062543;28;20048;-73
2023/08/29 12:58:10;;;;;;;0.90;0.70;;;25.40;1.00;;;;;;5024231;28;20120;-73